sensor_id;sensor_type;location;lat;lon;timestamp;pressure;altitude;pressure_sealevel;temperature;humidity
40946;BME280;55635;50.264;11.918;2023-02-03T00:00:26;96304.50;;;3.49;98.58
40946;BME280;55635;50.264;11.918;2023-02-03T00:03:08;96290.53;;;3.59;97.36
40946;BME280;55635;50.264;11.918;2023-02-03T00:05:49;96295.47;;;3.73;97.29
40946;BME280;55635;50.264;11.918;2023-02-03T00:08:30;96293.00;;;3.72;97.24
40946;BME280;55635;50.264;11.918;2023-02-03T00:11:11;96291.38;;;3.80;96.93
40946;BME280;55635;50.264;11.918;2023-02-03T00:13:52;96294.19;;;3.89;96.92
40946;BME280;55635;50.264;11.918;2023-02-03T00:16:34;96302.19;;;3.87;97.50
40946;BME280;55635;50.264;11.918;2023-02-03T00:19:15;96291.63;;;3.77;96.73
40946;BME280;55635;50.264;11.918;2023-02-03T00:21:56;96289.16;;;3.97;96.66
40946;BME280;55635;50.264;11.918;2023-02-03T00:24:37;96283.84;;;4.08;96.78
40946;BME280;55635;50.264;11.918;2023-02-03T00:27:18;96266.63;;;4.15;96.54
40946;BME280;55635;50.264;11.918;2023-02-03T00:29:59;96272.13;;;4.12;96.75
40946;BME280;55635;50.264;11.918;2023-02-03T00:32:40;96274.72;;;4.32;95.68
40946;BME280;55635;50.264;11.918;2023-02-03T00:35:21;96268.38;;;4.35;95.91
40946;BME280;55635;50.264;11.918;2023-02-03T00:38:02;96267.56;;;4.14;96.37
40946;BME280;55635;50.264;11.918;2023-02-03T00:40:54;96257.81;;;4.46;95.73
40946;BME280;55635;50.264;11.918;2023-02-03T00:43:35;96273.03;;;4.52;95.65
40946;BME280;55635;50.264;11.918;2023-02-03T00:46:16;96268.31;;;4.56;95.25
40946;BME280;55635;50.264;11.918;2023-02-03T00:48:57;96266.78;;;4.53;95.53
40946;BME280;55635;50.264;11.918;2023-02-03T00:51:38;96263.94;;;4.66;94.41
40946;BME280;55635;50.264;11.918;2023-02-03T00:54:19;96262.25;;;4.55;94.37
40946;BME280;55635;50.264;11.918;2023-02-03T00:57:00;96258.13;;;4.62;94.31
40946;BME280;55635;50.264;11.918;2023-02-03T00:59:41;96248.16;;;4.56;94.21
40946;BME280;55635;50.264;11.918;2023-02-03T01:02:23;96257.59;;;4.68;94.29
40946;BME280;55635;50.264;11.918;2023-02-03T01:05:07;96244.03;;;4.63;94.14
40946;BME280;55635;50.264;11.918;2023-02-03T01:07:48;96245.44;;;4.67;94.51
40946;BME280;55635;50.264;11.918;2023-02-03T01:10:29;96259.59;;;4.85;93.83
40946;BME280;55635;50.264;11.918;2023-02-03T01:13:10;96254.97;;;4.68;93.92
40946;BME280;55635;50.264;11.918;2023-02-03T01:15:51;96254.03;;;4.79;94.30
40946;BME280;55635;50.264;11.918;2023-02-03T01:18:36;96238.84;;;4.82;94.75
40946;BME280;55635;50.264;11.918;2023-02-03T01:21:23;96225.69;;;4.73;95.32
40946;BME280;55635;50.264;11.918;2023-02-03T01:24:05;96233.59;;;4.82;95.33
40946;BME280;55635;50.264;11.918;2023-02-03T01:26:46;96227.06;;;4.86;95.32
40946;BME280;55635;50.264;11.918;2023-02-03T01:29:27;96230.16;;;4.91;94.87
40946;BME280;55635;50.264;11.918;2023-02-03T01:32:09;96213.94;;;4.77;95.85
40946;BME280;55635;50.264;11.918;2023-02-03T01:34:50;96220.75;;;4.89;96.13
40946;BME280;55635;50.264;11.918;2023-02-03T01:37:31;96215.63;;;4.97;94.76
40946;BME280;55635;50.264;11.918;2023-02-03T01:40:12;96200.41;;;4.91;96.03
40946;BME280;55635;50.264;11.918;2023-02-03T01:42:53;96208.03;;;5.04;95.71
40946;BME280;55635;50.264;11.918;2023-02-03T01:45:34;96194.47;;;4.99;95.36
40946;BME280;55635;50.264;11.918;2023-02-03T01:48:15;96165.03;;;4.85;95.85
40946;BME280;55635;50.264;11.918;2023-02-03T01:50:56;96176.09;;;4.89;97.00
40946;BME280;55635;50.264;11.918;2023-02-03T01:53:38;96201.13;;;5.12;96.03
40946;BME280;55635;50.264;11.918;2023-02-03T01:56:20;96203.88;;;5.11;96.82
40946;BME280;55635;50.264;11.918;2023-02-03T01:59:02;96187.84;;;5.14;96.02
40946;BME280;55635;50.264;11.918;2023-02-03T02:01:44;96190.47;;;5.14;95.18
40946;BME280;55635;50.264;11.918;2023-02-03T02:04:34;96188.94;;;5.11;96.12
40946;BME280;55635;50.264;11.918;2023-02-03T02:07:16;96186.31;;;5.11;95.51
40946;BME280;55635;50.264;11.918;2023-02-03T02:09:57;96172.50;;;5.09;95.67
40946;BME280;55635;50.264;11.918;2023-02-03T02:12:39;96187.72;;;5.25;94.72
40946;BME280;55635;50.264;11.918;2023-02-03T02:15:25;96176.94;;;5.28;94.36
40946;BME280;55635;50.264;11.918;2023-02-03T02:28:38;96143.56;;;5.38;94.81
40946;BME280;55635;50.264;11.918;2023-02-03T02:41:43;96160.31;;;5.46;94.23
40946;BME280;55635;50.264;11.918;2023-02-03T02:47:18;96153.38;;;5.55;93.58
40946;BME280;55635;50.264;11.918;2023-02-03T02:50:22;96162.22;;;5.54;93.41
40946;BME280;55635;50.264;11.918;2023-02-03T02:53:06;96157.53;;;5.48;93.83
40946;BME280;55635;50.264;11.918;2023-02-03T02:55:51;96161.94;;;5.57;94.09
40946;BME280;55635;50.264;11.918;2023-02-03T02:58:34;96162.06;;;5.65;93.00
40946;BME280;55635;50.264;11.918;2023-02-03T03:01:17;96163.72;;;5.66;93.45
40946;BME280;55635;50.264;11.918;2023-02-03T03:04:02;96172.03;;;5.62;93.56
40946;BME280;55635;50.264;11.918;2023-02-03T03:07:07;96177.16;;;5.63;94.13
40946;BME280;55635;50.264;11.918;2023-02-03T03:09:57;96157.59;;;5.75;93.02
40946;BME280;55635;50.264;11.918;2023-02-03T03:12:48;96159.16;;;5.68;93.75
40946;BME280;55635;50.264;11.918;2023-02-03T03:15:33;96176.31;;;5.72;94.56
40946;BME280;55635;50.264;11.918;2023-02-03T03:18:35;96173.81;;;5.90;94.44
40946;BME280;55635;50.264;11.918;2023-02-03T03:21:29;96174.50;;;5.73;95.31
40946;BME280;55635;50.264;11.918;2023-02-03T03:24:17;96180.88;;;5.70;95.38
40946;BME280;55635;50.264;11.918;2023-02-03T03:27:10;96191.09;;;5.83;95.53
40946;BME280;55635;50.264;11.918;2023-02-03T03:29:59;96208.44;;;5.76;96.50
40946;BME280;55635;50.264;11.918;2023-02-03T03:32:42;96207.19;;;5.70;95.91
40946;BME280;55635;50.264;11.918;2023-02-03T03:35:30;96202.03;;;5.78;96.96
40946;BME280;55635;50.264;11.918;2023-02-03T03:38:38;96177.41;;;5.79;95.65
40946;BME280;55635;50.264;11.918;2023-02-03T03:50:52;96163.13;;;6.01;94.93
40946;BME280;55635;50.264;11.918;2023-02-03T03:53:37;96176.28;;;6.01;94.68
40946;BME280;55635;50.264;11.918;2023-02-03T03:56:26;96163.75;;;6.13;94.32
40946;BME280;55635;50.264;11.918;2023-02-03T03:59:10;96182.41;;;6.29;93.06
40946;BME280;55635;50.264;11.918;2023-02-03T04:01:53;96169.28;;;6.19;92.72
40946;BME280;55635;50.264;11.918;2023-02-03T04:04:36;96168.28;;;6.30;92.60
40946;BME280;55635;50.264;11.918;2023-02-03T04:07:19;96160.72;;;6.17;93.23
40946;BME280;55635;50.264;11.918;2023-02-03T04:10:00;96162.34;;;6.18;93.74
40946;BME280;55635;50.264;11.918;2023-02-03T04:12:40;96132.91;;;6.05;94.15
40946;BME280;55635;50.264;11.918;2023-02-03T04:15:21;96133.19;;;6.02;94.57
40946;BME280;55635;50.264;11.918;2023-02-03T04:18:03;96123.16;;;6.15;94.13
40946;BME280;55635;50.264;11.918;2023-02-03T04:20:44;96111.41;;;6.10;93.77
40946;BME280;55635;50.264;11.918;2023-02-03T04:23:25;96119.69;;;6.15;93.36
40946;BME280;55635;50.264;11.918;2023-02-03T04:26:06;96112.56;;;5.97;95.08
40946;BME280;55635;50.264;11.918;2023-02-03T04:28:47;96112.56;;;5.97;94.73
40946;BME280;55635;50.264;11.918;2023-02-03T04:31:28;96102.00;;;6.07;95.02
40946;BME280;55635;50.264;11.918;2023-02-03T04:34:09;96102.53;;;6.11;93.34
40946;BME280;55635;50.264;11.918;2023-02-03T04:36:50;96105.06;;;6.02;95.19
40946;BME280;55635;50.264;11.918;2023-02-03T04:39:30;96093.84;;;6.00;94.00
40946;BME280;55635;50.264;11.918;2023-02-03T04:42:12;96126.06;;;6.12;94.36
40946;BME280;55635;50.264;11.918;2023-02-03T04:44:52;96114.41;;;6.15;94.02
40946;BME280;55635;50.264;11.918;2023-02-03T04:47:34;96124.78;;;6.26;93.65
40946;BME280;55635;50.264;11.918;2023-02-03T04:50:18;96128.88;;;6.11;94.08
40946;BME280;55635;50.264;11.918;2023-02-03T04:52:59;96138.91;;;6.25;94.37
40946;BME280;55635;50.264;11.918;2023-02-03T04:55:40;96132.56;;;6.18;93.52
40946;BME280;55635;50.264;11.918;2023-02-03T04:58:21;96119.13;;;6.21;94.37
40946;BME280;55635;50.264;11.918;2023-02-03T05:01:07;96123.56;;;6.20;94.55
40946;BME280;55635;50.264;11.918;2023-02-03T05:03:48;96118.53;;;6.27;93.23
40946;BME280;55635;50.264;11.918;2023-02-03T05:06:29;96126.66;;;6.06;93.76
40946;BME280;55635;50.264;11.918;2023-02-03T05:09:11;96114.25;;;6.26;93.00
40946;BME280;55635;50.264;11.918;2023-02-03T05:11:53;96118.00;;;6.23;93.82
40946;BME280;55635;50.264;11.918;2023-02-03T05:14:34;96107.94;;;6.09;92.62
40946;BME280;55635;50.264;11.918;2023-02-03T05:17:14;96091.84;;;6.12;93.94
40946;BME280;55635;50.264;11.918;2023-02-03T05:19:55;96096.47;;;6.00;94.21
40946;BME280;55635;50.264;11.918;2023-02-03T05:22:36;96090.97;;;6.21;94.47
40946;BME280;55635;50.264;11.918;2023-02-03T05:25:17;96088.59;;;6.28;93.42
40946;BME280;55635;50.264;11.918;2023-02-03T05:27:58;96073.28;;;6.41;92.94
40946;BME280;55635;50.264;11.918;2023-02-03T05:30:40;96067.22;;;6.31;93.49
40946;BME280;55635;50.264;11.918;2023-02-03T05:33:21;96055.69;;;6.14;94.33
40946;BME280;55635;50.264;11.918;2023-02-03T05:36:02;96040.41;;;6.18;93.95
40946;BME280;55635;50.264;11.918;2023-02-03T05:38:43;96024.25;;;6.13;93.94
40946;BME280;55635;50.264;11.918;2023-02-03T05:41:24;96027.84;;;6.12;94.69
40946;BME280;55635;50.264;11.918;2023-02-03T05:44:27;96058.06;;;6.35;92.89
40946;BME280;55635;50.264;11.918;2023-02-03T05:47:08;96063.91;;;6.29;93.81
40946;BME280;55635;50.264;11.918;2023-02-03T05:49:49;96056.91;;;6.20;94.67
40946;BME280;55635;50.264;11.918;2023-02-03T05:52:30;96059.31;;;6.31;93.34
40946;BME280;55635;50.264;11.918;2023-02-03T05:55:11;96048.91;;;6.39;93.35
40946;BME280;55635;50.264;11.918;2023-02-03T05:57:52;96024.06;;;6.24;93.85
40946;BME280;55635;50.264;11.918;2023-02-03T06:00:33;96025.38;;;6.10;93.93
40946;BME280;55635;50.264;11.918;2023-02-03T06:03:14;96038.97;;;6.33;94.11
40946;BME280;55635;50.264;11.918;2023-02-03T06:05:55;96040.31;;;6.37;93.10
40946;BME280;55635;50.264;11.918;2023-02-03T06:08:36;96045.28;;;6.40;93.13
40946;BME280;55635;50.264;11.918;2023-02-03T06:11:17;96038.50;;;6.37;93.52
40946;BME280;55635;50.264;11.918;2023-02-03T06:13:59;96038.19;;;6.40;92.88
40946;BME280;55635;50.264;11.918;2023-02-03T06:16:40;96040.34;;;6.27;93.67
40946;BME280;55635;50.264;11.918;2023-02-03T06:19:21;96041.81;;;6.39;92.49
40946;BME280;55635;50.264;11.918;2023-02-03T06:22:02;96050.88;;;6.27;92.75
40946;BME280;55635;50.264;11.918;2023-02-03T06:24:43;96041.31;;;6.09;93.10
40946;BME280;55635;50.264;11.918;2023-02-03T06:27:26;96043.69;;;6.29;93.06
40946;BME280;55635;50.264;11.918;2023-02-03T06:30:08;96037.00;;;6.35;93.28
40946;BME280;55635;50.264;11.918;2023-02-03T06:32:50;96055.97;;;6.38;92.69
40946;BME280;55635;50.264;11.918;2023-02-03T06:35:31;96043.22;;;6.34;92.37
40946;BME280;55635;50.264;11.918;2023-02-03T06:38:12;96027.94;;;6.02;94.38
40946;BME280;55635;50.264;11.918;2023-02-03T06:40:53;96036.03;;;6.09;93.59
40946;BME280;55635;50.264;11.918;2023-02-03T06:43:33;96024.44;;;6.29;94.35
40946;BME280;55635;50.264;11.918;2023-02-03T06:46:15;96030.66;;;6.28;93.65
40946;BME280;55635;50.264;11.918;2023-02-03T06:48:56;96015.63;;;6.38;92.61
40946;BME280;55635;50.264;11.918;2023-02-03T06:51:36;96015.41;;;6.49;92.83
40946;BME280;55635;50.264;11.918;2023-02-03T06:54:17;96018.69;;;6.33;92.47
40946;BME280;55635;50.264;11.918;2023-02-03T06:57:01;96016.09;;;6.51;92.15
40946;BME280;55635;50.264;11.918;2023-02-03T06:59:43;96013.66;;;6.40;92.42
40946;BME280;55635;50.264;11.918;2023-02-03T07:02:24;96018.94;;;6.40;91.90
40946;BME280;55635;50.264;11.918;2023-02-03T07:05:06;96029.22;;;6.33;93.31
40946;BME280;55635;50.264;11.918;2023-02-03T07:07:47;96033.09;;;6.39;93.22
40946;BME280;55635;50.264;11.918;2023-02-03T07:10:28;96031.91;;;6.51;92.83
40946;BME280;55635;50.264;11.918;2023-02-03T07:13:09;96038.44;;;6.65;92.21
40946;BME280;55635;50.264;11.918;2023-02-03T07:15:50;96029.94;;;6.53;92.39
40946;BME280;55635;50.264;11.918;2023-02-03T07:18:30;96041.06;;;6.47;91.63
40946;BME280;55635;50.264;11.918;2023-02-03T07:21:12;96038.66;;;6.36;92.91
40946;BME280;55635;50.264;11.918;2023-02-03T07:23:53;96038.81;;;6.52;91.71
40946;BME280;55635;50.264;11.918;2023-02-03T07:26:34;96033.22;;;6.55;91.18
40946;BME280;55635;50.264;11.918;2023-02-03T07:29:15;96022.41;;;6.58;91.19
40946;BME280;55635;50.264;11.918;2023-02-03T07:31:56;96028.50;;;6.41;92.56
40946;BME280;55635;50.264;11.918;2023-02-03T07:34:37;96031.13;;;6.41;93.10
40946;BME280;55635;50.264;11.918;2023-02-03T07:37:18;96025.28;;;6.47;91.78
40946;BME280;55635;50.264;11.918;2023-02-03T07:39:59;96011.13;;;6.66;91.00
40946;BME280;55635;50.264;11.918;2023-02-03T07:42:45;96013.97;;;6.19;92.34
40946;BME280;55635;50.264;11.918;2023-02-03T07:45:26;96020.91;;;6.38;92.67
40946;BME280;55635;50.264;11.918;2023-02-03T07:48:07;96023.41;;;6.57;91.84
40946;BME280;55635;50.264;11.918;2023-02-03T07:50:48;96015.56;;;6.65;92.18
40946;BME280;55635;50.264;11.918;2023-02-03T07:53:31;96016.22;;;6.67;91.43
40946;BME280;55635;50.264;11.918;2023-02-03T07:56:11;96022.88;;;6.36;92.63
40946;BME280;55635;50.264;11.918;2023-02-03T07:58:52;96016.53;;;6.29;93.74
40946;BME280;55635;50.264;11.918;2023-02-03T08:01:33;96018.94;;;6.57;93.22
40946;BME280;55635;50.264;11.918;2023-02-03T08:04:14;96016.69;;;6.45;92.62
40946;BME280;55635;50.264;11.918;2023-02-03T08:06:56;96018.19;;;6.30;92.51
40946;BME280;55635;50.264;11.918;2023-02-03T08:09:37;96012.75;;;6.49;92.51
40946;BME280;55635;50.264;11.918;2023-02-03T08:12:18;96002.09;;;6.50;91.66
40946;BME280;55635;50.264;11.918;2023-02-03T08:14:59;95998.94;;;6.47;91.93
40946;BME280;55635;50.264;11.918;2023-02-03T08:17:40;96006.16;;;6.45;92.05
40946;BME280;55635;50.264;11.918;2023-02-03T08:20:21;96000.19;;;6.61;91.71
40946;BME280;55635;50.264;11.918;2023-02-03T08:23:02;95984.84;;;6.56;91.72
40946;BME280;55635;50.264;11.918;2023-02-03T08:25:43;95986.72;;;6.28;92.66
40946;BME280;55635;50.264;11.918;2023-02-03T08:28:24;95976.56;;;6.33;92.37
40946;BME280;55635;50.264;11.918;2023-02-03T08:31:10;95967.31;;;6.47;92.63
40946;BME280;55635;50.264;11.918;2023-02-03T08:33:51;95982.06;;;6.40;92.72
40946;BME280;55635;50.264;11.918;2023-02-03T08:36:32;95967.63;;;6.44;92.08
40946;BME280;55635;50.264;11.918;2023-02-03T08:39:13;95978.81;;;6.46;93.21
40946;BME280;55635;50.264;11.918;2023-02-03T08:41:54;95981.25;;;6.57;91.81
40946;BME280;55635;50.264;11.918;2023-02-03T08:44:35;95980.72;;;6.53;91.99
40946;BME280;55635;50.264;11.918;2023-02-03T08:47:18;95988.47;;;6.55;90.82
40946;BME280;55635;50.264;11.918;2023-02-03T08:49:59;95982.66;;;6.34;92.48
40946;BME280;55635;50.264;11.918;2023-02-03T08:52:40;95981.09;;;6.41;92.38
40946;BME280;55635;50.264;11.918;2023-02-03T08:55:21;95994.72;;;6.54;91.64
40946;BME280;55635;50.264;11.918;2023-02-03T08:58:02;95977.53;;;6.68;92.02
40946;BME280;55635;50.264;11.918;2023-02-03T09:00:43;95987.84;;;6.79;90.82
40946;BME280;55635;50.264;11.918;2023-02-03T09:03:24;95974.16;;;6.57;91.57
40946;BME280;55635;50.264;11.918;2023-02-03T09:06:07;95981.44;;;6.64;92.05
40946;BME280;55635;50.264;11.918;2023-02-03T09:08:49;95966.63;;;6.63;92.35
40946;BME280;55635;50.264;11.918;2023-02-03T09:11:30;95953.78;;;6.42;92.49
40946;BME280;55635;50.264;11.918;2023-02-03T09:14:11;95951.44;;;6.56;92.47
40946;BME280;55635;50.264;11.918;2023-02-03T09:16:52;95944.38;;;6.83;91.56
40946;BME280;55635;50.264;11.918;2023-02-03T09:19:33;95926.66;;;6.67;91.99
40946;BME280;55635;50.264;11.918;2023-02-03T09:22:14;95912.00;;;6.90;91.41
40946;BME280;55635;50.264;11.918;2023-02-03T09:24:55;95926.16;;;6.89;90.31
40946;BME280;55635;50.264;11.918;2023-02-03T09:27:36;95925.31;;;6.89;91.00
40946;BME280;55635;50.264;11.918;2023-02-03T09:30:17;95939.06;;;6.75;90.88
40946;BME280;55635;50.264;11.918;2023-02-03T09:32:58;95918.31;;;6.72;92.18
40946;BME280;55635;50.264;11.918;2023-02-03T09:35:39;95925.94;;;6.83;91.74
40946;BME280;55635;50.264;11.918;2023-02-03T09:38:20;95913.41;;;7.02;90.43
40946;BME280;55635;50.264;11.918;2023-02-03T09:47:04;95899.91;;;6.80;91.08
40946;BME280;55635;50.264;11.918;2023-02-03T09:49:57;95905.78;;;6.74;91.35
40946;BME280;55635;50.264;11.918;2023-02-03T09:52:40;95903.09;;;6.66;91.68
40946;BME280;55635;50.264;11.918;2023-02-03T09:55:40;95906.94;;;6.71;92.14
40946;BME280;55635;50.264;11.918;2023-02-03T09:58:21;95891.84;;;6.55;93.03
40946;BME280;55635;50.264;11.918;2023-02-03T10:01:07;95892.66;;;6.56;92.71
40946;BME280;55635;50.264;11.918;2023-02-03T10:07:27;95897.50;;;6.94;91.95
40946;BME280;55635;50.264;11.918;2023-02-03T10:17:27;95876.13;;;6.97;92.16
40946;BME280;55635;50.264;11.918;2023-02-03T10:20:23;95879.25;;;7.01;90.89
40946;BME280;55635;50.264;11.918;2023-02-03T10:23:16;95868.19;;;6.89;90.96
40946;BME280;55635;50.264;11.918;2023-02-03T10:26:08;95867.72;;;6.94;91.29
40946;BME280;55635;50.264;11.918;2023-02-03T10:28:55;95853.72;;;6.93;90.73
40946;BME280;55635;50.264;11.918;2023-02-03T10:31:37;95855.28;;;6.78;90.78
40946;BME280;55635;50.264;11.918;2023-02-03T10:34:20;95857.84;;;6.96;90.71
40946;BME280;55635;50.264;11.918;2023-02-03T10:40:04;95846.63;;;6.94;90.95
40946;BME280;55635;50.264;11.918;2023-02-03T10:42:47;95837.94;;;7.09;90.25
40946;BME280;55635;50.264;11.918;2023-02-03T10:45:47;95842.34;;;6.93;90.92
40946;BME280;55635;50.264;11.918;2023-02-03T10:48:28;95810.59;;;7.02;90.55
40946;BME280;55635;50.264;11.918;2023-02-03T10:51:33;95825.78;;;7.08;90.84
40946;BME280;55635;50.264;11.918;2023-02-03T10:54:35;95810.94;;;7.07;90.91
40946;BME280;55635;50.264;11.918;2023-02-03T10:57:17;95791.03;;;6.79;91.05
40946;BME280;55635;50.264;11.918;2023-02-03T11:00:32;95812.59;;;7.17;90.33
40946;BME280;55635;50.264;11.918;2023-02-03T11:03:27;95819.19;;;7.12;89.79
40946;BME280;55635;50.264;11.918;2023-02-03T11:06:14;95805.94;;;6.96;90.14
40946;BME280;55635;50.264;11.918;2023-02-03T11:08:57;95800.69;;;7.04;90.56
40946;BME280;55635;50.264;11.918;2023-02-03T11:11:38;95805.31;;;7.02;90.20
40946;BME280;55635;50.264;11.918;2023-02-03T11:14:21;95810.06;;;6.99;90.37
40946;BME280;55635;50.264;11.918;2023-02-03T11:17:07;95819.22;;;7.21;90.24
40946;BME280;55635;50.264;11.918;2023-02-03T11:19:54;95807.47;;;7.07;90.30
40946;BME280;55635;50.264;11.918;2023-02-03T11:22:38;95820.41;;;6.92;90.70
40946;BME280;55635;50.264;11.918;2023-02-03T11:25:25;95840.25;;;7.12;90.71
40946;BME280;55635;50.264;11.918;2023-02-03T11:28:11;95826.13;;;6.80;92.69
40946;BME280;55635;50.264;11.918;2023-02-03T11:30:56;95827.38;;;7.01;91.86
40946;BME280;55635;50.264;11.918;2023-02-03T11:33:38;95805.44;;;6.93;92.04
40946;BME280;55635;50.264;11.918;2023-02-03T11:36:19;95802.63;;;6.94;91.81
40946;BME280;55635;50.264;11.918;2023-02-03T11:39:29;95806.00;;;7.12;91.70
40946;BME280;55635;50.264;11.918;2023-02-03T11:42:23;95794.16;;;7.17;91.31
40946;BME280;55635;50.264;11.918;2023-02-03T11:48:14;95773.72;;;7.19;90.91
40946;BME280;55635;50.264;11.918;2023-02-03T11:51:40;95774.06;;;7.24;90.43
40946;BME280;55635;50.264;11.918;2023-02-03T11:55:02;95751.00;;;7.26;90.03
40946;BME280;55635;50.264;11.918;2023-02-03T12:23:44;95677.19;;;7.50;90.56
40946;BME280;55635;50.264;11.918;2023-02-03T12:29:38;95677.16;;;7.18;90.85
40946;BME280;55635;50.264;11.918;2023-02-03T12:32:44;95679.19;;;7.40;90.73
40946;BME280;55635;50.264;11.918;2023-02-03T12:35:49;95695.31;;;7.45;91.17
40946;BME280;55635;50.264;11.918;2023-02-03T12:41:38;95686.88;;;7.09;92.33
40946;BME280;55635;50.264;11.918;2023-02-03T12:44:50;95703.88;;;7.23;92.01
40946;BME280;55635;50.264;11.918;2023-02-03T12:47:51;95695.28;;;7.12;92.15
40946;BME280;55635;50.264;11.918;2023-02-03T12:50:50;95706.44;;;6.98;93.04
40946;BME280;55635;50.264;11.918;2023-02-03T12:53:41;95689.19;;;7.12;92.71
40946;BME280;55635;50.264;11.918;2023-02-03T12:56:40;95696.75;;;7.07;93.50
40946;BME280;55635;50.264;11.918;2023-02-03T12:59:24;95686.50;;;6.88;94.15
40946;BME280;55635;50.264;11.918;2023-02-03T13:02:18;95672.00;;;6.92;94.02
40946;BME280;55635;50.264;11.918;2023-02-03T13:05:19;95680.09;;;6.98;94.54
40946;BME280;55635;50.264;11.918;2023-02-03T13:08:32;95690.66;;;7.06;94.33
40946;BME280;55635;50.264;11.918;2023-02-03T13:11:32;95681.25;;;7.04;94.65
40946;BME280;55635;50.264;11.918;2023-02-03T13:14:41;95677.97;;;7.02;94.42
40946;BME280;55635;50.264;11.918;2023-02-03T13:17:47;95671.25;;;7.24;93.18
40946;BME280;55635;50.264;11.918;2023-02-03T13:20:32;95676.31;;;7.01;93.93
40946;BME280;55635;50.264;11.918;2023-02-03T13:23:15;95681.63;;;7.17;92.95
40946;BME280;55635;50.264;11.918;2023-02-03T13:30:10;95690.72;;;7.31;92.37
40946;BME280;55635;50.264;11.918;2023-02-03T13:45:40;95713.84;;;6.95;93.02
40946;BME280;55635;50.264;11.918;2023-02-03T13:48:29;95712.06;;;7.03;93.04
40946;BME280;55635;50.264;11.918;2023-02-03T13:51:18;95698.56;;;7.06;93.25
40946;BME280;55635;50.264;11.918;2023-02-03T13:54:07;95702.00;;;7.07;93.22
40946;BME280;55635;50.264;11.918;2023-02-03T13:56:59;95695.13;;;7.06;93.41
40946;BME280;55635;50.264;11.918;2023-02-03T13:59:43;95699.19;;;7.00;93.42
40946;BME280;55635;50.264;11.918;2023-02-03T14:05:44;95703.13;;;6.88;93.61
40946;BME280;55635;50.264;11.918;2023-02-03T14:16:55;95686.00;;;6.92;94.31
40946;BME280;55635;50.264;11.918;2023-02-03T14:22:30;95639.25;;;7.10;93.17
40946;BME280;55635;50.264;11.918;2023-02-03T14:25:11;95611.56;;;7.06;93.76
40946;BME280;55635;50.264;11.918;2023-02-03T14:28:06;95640.25;;;7.18;94.05
40946;BME280;55635;50.264;11.918;2023-02-03T14:31:19;95657.41;;;7.38;93.46
40946;BME280;55635;50.264;11.918;2023-02-03T14:34:07;95662.16;;;7.34;93.48
40946;BME280;55635;50.264;11.918;2023-02-03T14:37:16;95658.06;;;7.40;92.80
40946;BME280;55635;50.264;11.918;2023-02-03T14:49:37;95681.63;;;7.49;92.01
40946;BME280;55635;50.264;11.918;2023-02-03T14:58:49;95699.78;;;7.68;91.93
40946;BME280;55635;50.264;11.918;2023-02-03T15:06:56;95699.63;;;7.54;91.44
40946;BME280;55635;50.264;11.918;2023-02-03T15:09:45;95708.84;;;7.50;92.11
40946;BME280;55635;50.264;11.918;2023-02-03T15:12:32;95718.44;;;7.67;92.10
40946;BME280;55635;50.264;11.918;2023-02-03T15:15:27;95725.34;;;7.60;92.38
40946;BME280;55635;50.264;11.918;2023-02-03T15:18:37;95721.38;;;7.56;93.26
40946;BME280;55635;50.264;11.918;2023-02-03T15:21:23;95737.38;;;7.54;93.95
40946;BME280;55635;50.264;11.918;2023-02-03T15:24:14;95744.28;;;7.55;93.94
40946;BME280;55635;50.264;11.918;2023-02-03T15:26:55;95738.84;;;7.41;94.58
40946;BME280;55635;50.264;11.918;2023-02-03T15:29:36;95752.53;;;7.36;94.60
40946;BME280;55635;50.264;11.918;2023-02-03T15:32:38;95753.03;;;7.48;94.67
40946;BME280;55635;50.264;11.918;2023-02-03T15:35:31;95751.69;;;7.44;94.39
40946;BME280;55635;50.264;11.918;2023-02-03T15:38:19;95740.13;;;7.29;94.29
40946;BME280;55635;50.264;11.918;2023-02-03T15:41:05;95770.47;;;7.33;94.22
40946;BME280;55635;50.264;11.918;2023-02-03T15:43:49;95779.56;;;7.38;94.28
40946;BME280;55635;50.264;11.918;2023-02-03T15:46:41;95768.16;;;7.38;94.20
40946;BME280;55635;50.264;11.918;2023-02-03T15:49:33;95786.63;;;7.30;93.80
40946;BME280;55635;50.264;11.918;2023-02-03T15:52:22;95790.09;;;7.38;93.91
40946;BME280;55635;50.264;11.918;2023-02-03T15:55:26;95792.28;;;7.59;93.33
40946;BME280;55635;50.264;11.918;2023-02-03T15:58:21;95790.75;;;7.40;93.42
40946;BME280;55635;50.264;11.918;2023-02-03T16:01:08;95807.78;;;7.46;93.45
40946;BME280;55635;50.264;11.918;2023-02-03T16:03:53;95800.13;;;7.35;93.35
40946;BME280;55635;50.264;11.918;2023-02-03T16:06:36;95798.50;;;7.34;92.93
40946;BME280;55635;50.264;11.918;2023-02-03T16:12:28;95797.53;;;7.43;92.23
40946;BME280;55635;50.264;11.918;2023-02-03T16:15:22;95790.59;;;7.34;92.27
40946;BME280;55635;50.264;11.918;2023-02-03T16:18:03;95786.94;;;7.35;92.05
40946;BME280;55635;50.264;11.918;2023-02-03T16:20:49;95797.50;;;7.27;91.68
40946;BME280;55635;50.264;11.918;2023-02-03T16:23:31;95795.03;;;7.33;90.87
40946;BME280;55635;50.264;11.918;2023-02-03T16:32:17;95797.13;;;7.22;89.80
40946;BME280;55635;50.264;11.918;2023-02-03T16:35:18;95790.19;;;7.12;88.58
40946;BME280;55635;50.264;11.918;2023-02-03T16:38:20;95799.28;;;7.18;88.30
40946;BME280;55635;50.264;11.918;2023-02-03T16:41:19;95815.13;;;7.26;87.16
40946;BME280;55635;50.264;11.918;2023-02-03T16:44:18;95806.38;;;7.18;86.70
40946;BME280;55635;50.264;11.918;2023-02-03T16:47:28;95797.81;;;7.24;85.62
40946;BME280;55635;50.264;11.918;2023-02-03T16:50:28;95798.38;;;6.93;83.82
40946;BME280;55635;50.264;11.918;2023-02-03T16:53:31;95824.94;;;7.08;83.37
40946;BME280;55635;50.264;11.918;2023-02-03T16:56:12;95822.44;;;7.06;84.39
40946;BME280;55635;50.264;11.918;2023-02-03T16:58:53;95836.47;;;7.07;83.88
40946;BME280;55635;50.264;11.918;2023-02-03T17:01:34;95834.34;;;7.10;83.65
40946;BME280;55635;50.264;11.918;2023-02-03T17:04:15;95834.88;;;7.22;83.75
40946;BME280;55635;50.264;11.918;2023-02-03T17:06:56;95828.13;;;7.20;83.70